Time;durP1;ratioP1;P1;durP2;ratioP2;P2;SDS_P1;SDS_P2;PMS_P1;PMS_P2;Temp;Humidity;BMP_temperature;BMP_pressure;BME280_temperature;BME280_humidity;BME280_pressure;Samples;Min_cycle;Max_cycle;Signal;HPM_P1;HPM_P2
2022/01/19 00:01:39;;;;;;;8.63;2.00;;;-3.10;99.90;;;;;;5034076;28;20409;-90
2022/01/19 00:04:07;;;;;;;6.85;1.80;;;-3.10;99.90;;;;;;5017629;28;20397;-89
2022/01/19 00:06:35;;;;;;;7.88;2.40;;;-3.00;99.90;;;;;;5017395;28;20389;-88
2022/01/19 00:09:02;;;;;;;8.55;2.08;;;-3.00;99.90;;;;;;5017200;28;20455;-89
2022/01/19 00:11:30;;;;;;;6.70;1.95;;;-3.00;99.90;;;;;;5033534;28;20416;-88
2022/01/19 00:13:57;;;;;;;9.47;2.10;;;-3.00;99.90;;;;;;5034055;28;20385;-89
2022/01/19 00:16:25;;;;;;;6.68;1.98;;;-2.90;99.90;;;;;;5033537;28;20926;-89
2022/01/19 00:18:53;;;;;;;5.03;1.50;;;-2.90;99.90;;;;;;5017133;28;20401;-88
2022/01/19 00:21:20;;;;;;;7.68;1.83;;;-2.90;99.90;;;;;;5033392;28;20436;-89
2022/01/19 00:23:48;;;;;;;7.00;1.98;;;-2.80;99.90;;;;;;5017057;28;20544;-89
2022/01/19 00:26:16;;;;;;;7.47;2.00;;;-2.90;99.90;;;;;;5033364;28;20409;-89
2022/01/19 00:28:43;;;;;;;10.25;2.05;;;-2.80;99.90;;;;;;5033353;28;20437;-89
2022/01/19 00:31:11;;;;;;;7.07;1.83;;;-2.90;99.90;;;;;;5033219;28;20455;-89
2022/01/19 00:33:39;;;;;;;7.15;2.10;;;-2.80;99.90;;;;;;5016934;28;20476;-90
2022/01/19 00:36:07;;;;;;;6.70;1.92;;;-2.80;99.90;;;;;;5033327;28;20984;-90
2022/01/19 00:38:35;;;;;;;8.00;1.98;;;-2.80;99.90;;;;;;5049696;28;20967;-90
2022/01/19 00:41:03;;;;;;;7.07;1.90;;;-2.70;99.90;;;;;;5017119;28;20390;-90
2022/01/19 00:43:30;;;;;;;6.80;1.98;;;-2.80;99.90;;;;;;5033087;28;20393;-90
2022/01/19 00:45:58;;;;;;;7.37;2.00;;;-2.70;99.90;;;;;;5016074;28;20394;-90
2022/01/19 00:48:27;;;;;;;6.13;1.97;;;-2.70;99.90;;;;;;5032978;28;20468;-89
2022/01/19 00:50:55;;;;;;;4.00;1.75;;;-2.70;99.90;;;;;;5032318;28;20407;-89
2022/01/19 00:53:24;;;;;;;6.60;1.90;;;-2.70;99.90;;;;;;5032666;28;20755;-89
2022/01/19 00:55:52;;;;;;;8.82;2.15;;;-2.60;99.90;;;;;;5016485;28;20412;-88
2022/01/19 00:58:19;;;;;;;8.95;2.20;;;-2.60;99.90;;;;;;5032801;28;20455;-88
2022/01/19 01:00:47;;;;;;;5.93;1.70;;;-2.60;99.90;;;;;;5032581;28;20934;-88
2022/01/19 01:03:15;;;;;;;9.80;2.40;;;-2.60;99.90;;;;;;5016528;28;20439;-89
2022/01/19 01:05:44;;;;;;;6.47;1.80;;;-2.60;99.90;;;;;;5032495;28;20409;-89
2022/01/19 01:08:11;;;;;;;8.98;2.10;;;-2.60;99.90;;;;;;5033091;28;20413;-88
2022/01/19 01:10:43;;;;;;;5.75;1.80;;;-2.60;99.90;;;;;;5032340;28;20846;-89
2022/01/19 01:16:05;;;;;;;7.57;2.10;;;-2.60;99.90;;;;;;5032606;28;20760;-89
2022/01/19 01:18:34;;;;;;;7.07;2.10;;;-2.60;99.90;;;;;;5039296;28;20486;-89
2022/01/19 01:21:04;;;;;;;8.40;2.15;;;-2.60;99.90;;;;;;5032475;28;20394;-88
2022/01/19 01:23:34;;;;;;;8.27;2.00;;;-2.60;99.90;;;;;;5032214;28;20752;-90
2022/01/19 01:26:07;;;;;;;8.55;2.10;;;-2.60;99.90;;;;;;5046984;28;20394;-89
2022/01/19 01:28:35;;;;;;;6.68;2.33;;;-2.50;99.90;;;;;;5018301;28;20394;-88
2022/01/19 01:31:04;;;;;;;7.07;1.93;;;-2.50;99.90;;;;;;5015918;28;20402;-88
2022/01/19 01:33:32;;;;;;;7.40;2.35;;;-2.50;99.90;;;;;;5016064;28;20392;-88
2022/01/19 01:36:01;;;;;;;9.27;2.55;;;-2.50;99.90;;;;;;5015517;28;20451;-88
2022/01/19 01:38:29;;;;;;;9.77;2.67;;;-2.50;99.90;;;;;;5032032;28;20447;-88
2022/01/19 01:41:13;;;;;;;10.63;2.90;;;-2.40;99.90;;;;;;5034135;28;20390;-87
2022/01/19 01:43:45;;;;;;;8.80;3.17;;;-2.30;99.90;;;;;;5015919;28;20429;-89
2022/01/19 01:46:41;;;;;;;9.18;2.60;;;-2.30;99.90;;;;;;5048299;28;20422;-88
2022/01/19 01:49:17;;;;;;;10.48;2.90;;;-2.30;99.90;;;;;;5015548;28;20416;-89
2022/01/19 01:54:33;;;;;;;9.48;3.60;;;-2.10;99.90;;;;;;5031860;28;20405;-90
2022/01/19 01:57:01;;;;;;;10.35;3.03;;;-2.20;99.90;;;;;;5015048;28;20397;-88
2022/01/19 01:59:33;;;;;;;11.07;3.00;;;-2.20;99.90;;;;;;5031316;28;20397;-88
2022/01/19 02:02:37;;;;;;;10.03;3.10;;;-2.20;99.90;;;;;;4961040;28;20413;-89
2022/01/19 02:05:08;;;;;;;10.63;3.30;;;-2.20;99.90;;;;;;5016149;28;20412;-88
2022/01/19 02:10:58;;;;;;;11.80;3.70;;;-2.10;99.90;;;;;;5023062;28;20405;-89
2022/01/19 02:21:39;;;;;;;13.27;4.20;;;-2.10;99.90;;;;;;5031353;28;20423;-87
2022/01/19 02:24:11;;;;;;;14.85;4.35;;;-2.10;99.90;;;;;;5014906;28;20408;-89
2022/01/19 02:27:02;;;;;;;16.38;4.25;;;-2.10;99.90;;;;;;5015127;28;20428;-88
2022/01/19 02:40:31;;;;;;;16.77;4.30;;;-2.00;99.90;;;;;;5031307;28;20470;-88
2022/01/19 02:51:05;;;;;;;14.20;4.35;;;-1.90;99.90;;;;;;5030829;28;20679;-87
2022/01/19 02:53:37;;;;;;;17.67;4.53;;;-1.90;99.90;;;;;;5014754;28;20871;-88
2022/01/19 02:56:10;;;;;;;12.30;4.15;;;-1.90;99.90;;;;;;5014389;28;20872;-89
2022/01/19 02:58:52;;;;;;;16.87;4.43;;;-1.90;99.90;;;;;;5031135;28;20400;-88
2022/01/19 03:09:39;;;;;;;15.55;4.70;;;-1.80;99.90;;;;;;5033728;28;20415;-87
2022/01/19 03:12:08;;;;;;;14.80;4.50;;;-1.80;99.90;;;;;;5018346;28;20397;-91
2022/01/19 03:14:36;;;;;;;16.77;4.68;;;-1.80;99.90;;;;;;5051191;28;20485;-89
2022/01/19 03:17:05;;;;;;;14.77;4.45;;;-1.70;99.90;;;;;;5018135;28;20420;-90
2022/01/19 03:19:34;;;;;;;13.32;4.63;;;-1.80;99.90;;;;;;5018196;28;20393;-90
2022/01/19 03:22:01;;;;;;;15.27;4.07;;;-1.70;99.90;;;;;;5034504;28;20458;-91
2022/01/19 03:24:37;;;;;;;13.43;3.95;;;-1.70;99.90;;;;;;5018169;28;20412;-91
2022/01/19 03:27:06;;;;;;;14.15;4.78;;;-1.70;99.90;;;;;;5017900;28;20491;-87
2022/01/19 03:29:41;;;;;;;13.77;3.95;;;-1.70;99.90;;;;;;5034770;28;20907;-89
2022/01/19 03:32:10;;;;;;;14.75;4.40;;;-1.70;99.90;;;;;;5034505;28;20397;-91
2022/01/19 03:34:39;;;;;;;12.85;4.40;;;-1.70;99.90;;;;;;5018390;28;20405;-91
2022/01/19 03:37:08;;;;;;;14.32;4.90;;;-1.60;99.90;;;;;;5051158;28;20428;-90
2022/01/19 03:39:35;;;;;;;13.53;4.53;;;-1.60;99.90;;;;;;5050932;28;20806;-89
2022/01/19 03:42:04;;;;;;;11.27;4.28;;;-1.60;99.90;;;;;;5035298;28;20403;-90
2022/01/19 03:44:31;;;;;;;10.20;4.00;;;-1.60;99.90;;;;;;5034096;28;20497;-89
2022/01/19 03:47:02;;;;;;;13.73;4.00;;;-1.60;99.90;;;;;;5017758;28;20386;-90
2022/01/19 03:49:33;;;;;;;11.13;4.15;;;-1.60;99.90;;;;;;5034118;28;20811;-89
2022/01/19 03:52:05;;;;;;;13.38;4.72;;;-1.50;99.90;;;;;;5034148;28;20409;-89
2022/01/19 03:54:41;;;;;;;10.25;3.42;;;-1.60;99.90;;;;;;5033852;28;20911;-88
2022/01/19 03:57:09;;;;;;;10.18;3.53;;;-1.50;99.90;;;;;;5043059;28;20390;-89
2022/01/19 03:59:39;;;;;;;10.40;3.80;;;-1.40;99.90;;;;;;5023948;28;20488;-89
2022/01/19 04:02:07;;;;;;;8.32;3.05;;;-1.40;99.90;;;;;;5031196;28;20832;-89
2022/01/19 04:07:23;;;;;;;9.95;3.45;;;-1.40;99.90;;;;;;5053700;28;20415;-91
2022/01/19 04:09:50;;;;;;;8.95;3.35;;;-1.40;99.90;;;;;;5036945;28;20407;-90
2022/01/19 04:12:26;;;;;;;10.15;4.03;;;-1.40;99.90;;;;;;5037137;28;20414;-90
2022/01/19 04:14:54;;;;;;;10.75;4.05;;;-1.40;99.90;;;;;;5044021;28;20397;-91
2022/01/19 04:17:21;;;;;;;7.82;3.00;;;-1.30;99.90;;;;;;5033410;28;20404;-90
2022/01/19 04:19:49;;;;;;;8.18;3.42;;;-1.30;99.90;;;;;;5033476;28;20863;-90
2022/01/19 04:22:22;;;;;;;7.18;3.17;;;-1.30;99.90;;;;;;5033889;28;20402;-91
2022/01/19 04:24:52;;;;;;;7.78;3.08;;;-1.30;99.90;;;;;;5033199;28;20502;-90
2022/01/19 04:30:00;;;;;;;8.05;2.92;;;-1.30;99.90;;;;;;5052934;28;20503;-89
2022/01/19 04:32:50;;;;;;;6.00;2.97;;;-1.20;99.90;;;;;;5053114;28;20400;-90
2022/01/19 04:35:24;;;;;;;9.00;2.95;;;-1.20;99.90;;;;;;5053229;28;20458;-90
2022/01/19 05:03:18;;;;;;;4.75;2.60;;;-1.00;99.90;;;;;;5044514;28;20418;-90
2022/01/19 05:06:01;;;;;;;6.13;2.33;;;-1.00;99.90;;;;;;5037133;28;20412;-90
2022/01/19 05:13:50;;;;;;;6.75;2.83;;;-1.10;99.90;;;;;;5049363;28;20416;-88
2022/01/19 05:16:21;;;;;;;7.30;2.83;;;-0.90;99.90;;;;;;5040902;28;20760;-89
2022/01/19 05:18:51;;;;;;;7.05;2.85;;;-0.90;99.90;;;;;;5024920;28;20404;-89
2022/01/19 05:21:19;;;;;;;5.30;2.65;;;-0.90;99.90;;;;;;5035808;28;20498;-89
2022/01/19 05:24:07;;;;;;;6.88;3.03;;;-0.90;99.90;;;;;;5052573;28;20375;-89
2022/01/19 05:26:37;;;;;;;6.50;2.58;;;-0.90;99.90;;;;;;5016083;28;20951;-88
2022/01/19 05:29:07;;;;;;;5.97;2.70;;;-0.90;99.90;;;;;;5016185;28;20406;-91
2022/01/19 05:31:35;;;;;;;5.68;2.55;;;-0.80;99.90;;;;;;5032115;28;20768;-91
2022/01/19 05:34:03;;;;;;;6.22;2.92;;;-0.80;99.90;;;;;;5015020;28;20403;-91
2022/01/19 05:36:40;;;;;;;6.10;2.70;;;-0.80;99.90;;;;;;5017791;28;20432;-90
2022/01/19 05:39:30;;;;;;;5.95;2.67;;;-0.80;99.90;;;;;;5018728;28;20413;-91
2022/01/19 05:42:16;;;;;;;7.95;2.63;;;-0.80;99.90;;;;;;5017758;28;20413;-91
2022/01/19 05:44:46;;;;;;;5.75;2.53;;;-0.70;99.90;;;;;;5016460;28;20413;-90
2022/01/19 05:47:19;;;;;;;6.00;2.78;;;-0.70;99.90;;;;;;5016698;28;20429;-91
2022/01/19 05:49:46;;;;;;;5.60;2.75;;;-0.70;99.90;;;;;;5032321;28;20965;-92
2022/01/19 05:52:15;;;;;;;4.97;2.17;;;-0.70;99.90;;;;;;5015988;28;20775;-92
2022/01/19 05:54:43;;;;;;;6.13;3.05;;;-0.60;99.90;;;;;;5029103;28;20459;-91
2022/01/19 05:57:11;;;;;;;5.30;2.65;;;-0.60;99.90;;;;;;5016770;28;20405;-91
2022/01/19 05:59:43;;;;;;;7.13;3.00;;;-0.60;99.90;;;;;;5017549;28;20405;-90
2022/01/19 06:02:11;;;;;;;5.13;2.50;;;-0.50;99.90;;;;;;5016521;28;20827;-92
2022/01/19 06:04:39;;;;;;;6.35;2.53;;;-0.60;99.90;;;;;;5016319;28;20488;-92
2022/01/19 06:07:29;;;;;;;6.88;2.47;;;-0.60;99.90;;;;;;5031878;28;20468;-91
2022/01/19 06:10:05;;;;;;;6.05;2.92;;;-0.50;99.90;;;;;;5015958;28;20408;-92
2022/01/19 06:12:39;;;;;;;5.87;3.07;;;-0.50;99.90;;;;;;5041398;28;20400;-90
2022/01/19 06:15:08;;;;;;;6.00;2.40;;;-0.40;99.90;;;;;;5050837;28;20889;-90
2022/01/19 06:17:35;;;;;;;6.18;2.50;;;-0.40;99.90;;;;;;5031007;28;20401;-91
2022/01/19 06:20:05;;;;;;;6.00;2.65;;;-0.40;99.90;;;;;;5015578;28;20451;-92
2022/01/19 06:22:33;;;;;;;7.50;3.60;;;-0.50;99.90;;;;;;5027425;28;20414;-91
2022/01/19 06:25:00;;;;;;;6.03;2.67;;;-0.50;99.90;;;;;;5034634;28;20435;-90
2022/01/19 06:27:29;;;;;;;5.70;2.58;;;-0.40;99.90;;;;;;5047811;28;20401;-91
2022/01/19 06:29:56;;;;;;;4.88;2.38;;;-0.40;99.90;;;;;;5030171;28;20965;-91
2022/01/19 06:32:24;;;;;;;4.95;2.80;;;-0.40;99.90;;;;;;5030288;28;20409;-90
2022/01/19 06:34:52;;;;;;;4.57;2.55;;;-0.30;99.90;;;;;;5032821;28;20391;-90
2022/01/19 06:37:22;;;;;;;4.40;2.47;;;-0.30;99.90;;;;;;5051228;28;20431;-90
2022/01/19 06:40:25;;;;;;;7.32;2.83;;;-0.30;99.90;;;;;;5033765;28;20476;-90
2022/01/19 06:42:55;;;;;;;6.50;2.77;;;-0.30;99.90;;;;;;5034308;28;20747;-91
2022/01/19 06:45:23;;;;;;;6.85;3.08;;;-0.30;99.90;;;;;;5021534;28;20425;-90
2022/01/19 06:48:21;;;;;;;5.85;2.83;;;-0.30;99.90;;;;;;5013904;28;20418;-90
2022/01/19 06:50:49;;;;;;;5.33;2.50;;;-0.30;99.90;;;;;;5014842;28;20875;-90
2022/01/19 06:53:23;;;;;;;9.15;3.58;;;-0.30;99.90;;;;;;5032287;28;20397;-90
2022/01/19 06:56:03;;;;;;;6.20;3.20;;;-0.20;99.90;;;;;;5032688;28;20404;-90
2022/01/19 06:58:31;;;;;;;6.57;3.28;;;-0.20;99.90;;;;;;5018303;28;20817;-91
2022/01/19 07:01:34;;;;;;;4.80;2.47;;;-0.20;99.90;;;;;;5029965;28;20948;-89
2022/01/19 07:04:16;;;;;;;5.05;2.83;;;-0.20;99.90;;;;;;5050665;28;20489;-90
2022/01/19 07:06:44;;;;;;;5.57;3.05;;;-0.20;99.90;;;;;;5045052;28;20413;-89
2022/01/19 07:09:14;;;;;;;6.18;3.40;;;-0.20;99.90;;;;;;5051482;28;20465;-90
2022/01/19 07:11:48;;;;;;;5.65;3.00;;;-0.10;99.90;;;;;;5051235;28;20407;-91
2022/01/19 07:14:17;;;;;;;5.32;3.25;;;-0.10;99.90;;;;;;5050945;28;20458;-90
2022/01/19 07:16:47;;;;;;;6.57;3.20;;;-0.10;99.90;;;;;;5034557;28;20438;-90
2022/01/19 07:19:15;;;;;;;6.75;3.05;;;-0.10;99.90;;;;;;5034994;28;20461;-90
2022/01/19 07:21:44;;;;;;;7.75;3.90;;;-0.10;99.90;;;;;;5034876;28;20917;-90
2022/01/19 07:24:14;;;;;;;6.65;3.25;;;-0.10;99.90;;;;;;5051664;28;20413;-90
2022/01/19 07:26:42;;;;;;;6.97;3.50;;;-0.10;99.90;;;;;;5034788;28;20743;-90
2022/01/19 07:29:13;;;;;;;5.45;3.20;;;-0.10;99.90;;;;;;5034618;28;20403;-90
2022/01/19 07:31:44;;;;;;;7.20;3.30;;;0.00;99.90;;;;;;5033609;28;20423;-90
2022/01/19 07:34:13;;;;;;;5.80;3.22;;;0.00;99.90;;;;;;5024461;28;20412;-89
2022/01/19 07:36:42;;;;;;;5.13;2.63;;;0.00;99.90;;;;;;5048720;28;20395;-91
2022/01/19 07:39:10;;;;;;;6.65;3.30;;;0.00;99.90;;;;;;5029705;28;20389;-90
2022/01/19 07:41:38;;;;;;;5.15;2.67;;;0.00;99.90;;;;;;5015351;28;20405;-90
2022/01/19 07:44:39;;;;;;;5.75;2.85;;;0.00;99.90;;;;;;5025806;28;20924;-89
2022/01/19 07:47:39;;;;;;;6.30;3.00;;;0.00;99.90;;;;;;5033539;28;20490;-90
2022/01/19 07:50:30;;;;;;;4.38;2.42;;;0.10;99.90;;;;;;5037041;28;20446;-91
2022/01/19 07:53:13;;;;;;;7.90;3.60;;;0.10;99.90;;;;;;5033749;28;20388;-90
2022/01/19 07:55:56;;;;;;;6.43;3.03;;;0.10;99.90;;;;;;5034384;28;20414;-89
2022/01/19 07:58:33;;;;;;;6.53;3.33;;;0.10;99.90;;;;;;5037112;28;20391;-90
2022/01/19 08:01:14;;;;;;;6.30;3.20;;;0.10;99.90;;;;;;5037162;28;20427;-90
2022/01/19 08:04:08;;;;;;;5.43;2.72;;;0.10;99.90;;;;;;5039443;28;20411;-91
2022/01/19 08:06:38;;;;;;;9.15;3.30;;;0.10;99.90;;;;;;5037053;28;20765;-90
2022/01/19 08:09:07;;;;;;;5.63;2.92;;;0.10;99.90;;;;;;5032862;28;20402;-90
2022/01/19 08:11:36;;;;;;;5.85;3.22;;;0.10;99.90;;;;;;5052764;28;20408;-91
2022/01/19 08:14:17;;;;;;;6.22;3.03;;;0.10;99.90;;;;;;5037113;28;20762;-90
2022/01/19 08:16:45;;;;;;;7.45;3.85;;;0.20;99.90;;;;;;5020520;28;20403;-90
2022/01/19 08:19:14;;;;;;;7.43;3.17;;;0.10;99.90;;;;;;5020764;28;20392;-89
2022/01/19 08:21:42;;;;;;;5.45;3.28;;;0.10;99.90;;;;;;5020343;28;20435;-90
2022/01/19 08:24:09;;;;;;;7.00;3.55;;;0.10;99.90;;;;;;5035515;28;20407;-90
2022/01/19 08:26:37;;;;;;;6.07;3.10;;;0.10;99.90;;;;;;5024707;28;20392;-90
2022/01/19 08:29:09;;;;;;;7.40;3.70;;;0.20;99.90;;;;;;5040897;28;20397;-90
2022/01/19 08:31:37;;;;;;;5.55;3.40;;;0.20;99.90;;;;;;5040150;28;20410;-90
2022/01/19 08:34:09;;;;;;;6.32;2.95;;;0.20;99.90;;;;;;5055782;28;20397;-89
2022/01/19 08:37:15;;;;;;;7.20;3.45;;;0.20;99.90;;;;;;4982188;28;20606;-89
2022/01/19 08:39:49;;;;;;;6.40;3.00;;;0.20;99.90;;;;;;4976951;28;20432;-89
2022/01/19 08:42:17;;;;;;;6.77;2.97;;;0.20;99.90;;;;;;5008341;28;20383;-89
2022/01/19 08:44:44;;;;;;;4.93;2.95;;;0.20;99.90;;;;;;5020286;28;20390;-89
2022/01/19 08:47:18;;;;;;;5.40;3.22;;;0.20;99.90;;;;;;5022038;28;20407;-89
2022/01/19 08:50:18;;;;;;;5.57;2.78;;;0.20;99.90;;;;;;5032792;28;20400;-90
2022/01/19 08:53:09;;;;;;;5.40;2.85;;;0.30;99.90;;;;;;5019775;28;20406;-89
2022/01/19 08:55:53;;;;;;;4.90;2.50;;;0.30;99.90;;;;;;5018984;28;20789;-90
2022/01/19 08:58:21;;;;;;;4.53;2.90;;;0.30;99.90;;;;;;5016751;28;20488;-89
2022/01/19 09:00:48;;;;;;;4.82;2.78;;;0.30;99.90;;;;;;5016395;28;20441;-90
2022/01/19 09:03:18;;;;;;;4.70;2.73;;;0.30;99.90;;;;;;5022674;28;20410;-90
2022/01/19 09:05:45;;;;;;;6.53;2.90;;;0.30;99.90;;;;;;5023619;28;20433;-87
2022/01/19 09:08:13;;;;;;;7.37;2.70;;;0.30;99.90;;;;;;5032134;28;20428;-85
2022/01/19 09:10:41;;;;;;;6.55;3.10;;;0.40;99.90;;;;;;5017478;28;20936;-86
2022/01/19 09:13:09;;;;;;;6.85;2.92;;;0.40;99.90;;;;;;5036802;28;20430;-86
2022/01/19 09:15:37;;;;;;;5.37;3.00;;;0.40;99.90;;;;;;5037868;28;20472;-86
2022/01/19 09:18:04;;;;;;;7.43;3.60;;;0.40;99.90;;;;;;5051344;28;20400;-86
2022/01/19 09:20:32;;;;;;;10.33;4.03;;;0.40;99.90;;;;;;5040304;28;20443;-86
2022/01/19 09:23:00;;;;;;;9.38;3.95;;;0.40;99.90;;;;;;5051655;28;20480;-86
2022/01/19 09:25:28;;;;;;;9.52;4.22;;;0.40;99.90;;;;;;5051680;28;20753;-86
2022/01/19 09:27:55;;;;;;;15.93;5.05;;;0.40;99.90;;;;;;5051884;28;20406;-86
2022/01/19 09:30:24;;;;;;;10.85;5.03;;;0.40;99.90;;;;;;5032510;28;20400;-86
2022/01/19 09:33:05;;;;;;;10.13;4.87;;;0.40;99.90;;;;;;5047932;28;20471;-86
2022/01/19 09:35:52;;;;;;;16.17;5.60;;;0.40;99.90;;;;;;5015380;28;20907;-86
2022/01/19 09:38:25;;;;;;;16.13;5.95;;;0.40;99.90;;;;;;5041774;28;20384;-86
2022/01/19 09:40:53;;;;;;;14.40;6.40;;;0.40;99.90;;;;;;5046417;28;20432;-85
2022/01/19 09:43:22;;;;;;;13.77;5.78;;;0.40;99.90;;;;;;5052285;28;20395;-85
2022/01/19 09:45:55;;;;;;;12.90;5.50;;;0.40;99.90;;;;;;5051005;28;20482;-85
2022/01/19 09:48:25;;;;;;;19.92;5.45;;;0.40;99.90;;;;;;5050823;28;20392;-85
2022/01/19 09:50:54;;;;;;;18.35;5.88;;;0.40;99.90;;;;;;5051116;28;20928;-85
2022/01/19 09:53:21;;;;;;;13.60;5.45;;;0.30;99.90;;;;;;5031280;28;20389;-85
2022/01/19 09:55:49;;;;;;;13.15;4.78;;;0.40;99.90;;;;;;5047613;28;20448;-85
2022/01/19 09:58:18;;;;;;;20.30;5.32;;;0.40;99.90;;;;;;5043004;28;20446;-86
2022/01/19 10:00:46;;;;;;;18.75;5.20;;;0.50;99.90;;;;;;5052318;28;20392;-86
2022/01/19 10:03:31;;;;;;;12.30;5.22;;;0.50;99.90;;;;;;5034943;28;20398;-86
2022/01/19 10:06:03;;;;;;;14.07;5.45;;;0.40;99.90;;;;;;5051578;28;20466;-86
2022/01/19 10:08:47;;;;;;;10.18;4.03;;;0.40;99.90;;;;;;5047321;28;20776;-86
2022/01/19 10:17:10;;;;;;;9.85;4.05;;;0.40;99.90;;;;;;5041124;28;20395;-86
2022/01/19 10:19:48;;;;;;;15.20;4.43;;;0.40;99.90;;;;;;5058501;28;20758;-85
2022/01/19 10:22:24;;;;;;;26.65;4.65;;;0.40;99.90;;;;;;5046361;28;20412;-85
2022/01/19 10:24:57;;;;;;;24.40;4.50;;;0.50;99.90;;;;;;5050363;28;20482;-84
2022/01/19 10:27:33;;;;;;;16.20;4.63;;;0.50;99.90;;;;;;5031045;28;20783;-85
2022/01/19 10:30:04;;;;;;;32.53;4.68;;;0.50;99.90;;;;;;5043406;28;20772;-84
2022/01/19 10:32:38;;;;;;;29.63;5.10;;;0.50;99.90;;;;;;5027709;28;20911;-85
2022/01/19 10:35:22;;;;;;;22.58;3.80;;;0.50;99.90;;;;;;5023047;28;20421;-85
2022/01/19 10:38:11;;;;;;;25.70;4.03;;;0.50;99.90;;;;;;5039029;28;20502;-85
2022/01/19 10:41:02;;;;;;;26.70;3.85;;;0.50;99.90;;;;;;5042223;28;20460;-86
2022/01/19 10:43:46;;;;;;;20.77;3.60;;;0.50;99.90;;;;;;5024544;28;20482;-84
2022/01/19 10:46:24;;;;;;;21.35;4.28;;;0.50;99.90;;;;;;5041111;28;20749;-84
2022/01/19 10:49:09;;;;;;;23.33;4.45;;;0.50;99.90;;;;;;5046227;28;20425;-84
2022/01/19 10:51:44;;;;;;;17.30;3.60;;;0.50;99.90;;;;;;5033565;28;20430;-85
2022/01/19 10:54:22;;;;;;;10.55;3.85;;;0.50;99.90;;;;;;5034006;28;20392;-84
2022/01/19 10:56:55;;;;;;;32.75;4.90;;;0.50;99.90;;;;;;5050209;28;20931;-85
2022/01/19 10:59:32;;;;;;;22.97;4.57;;;0.60;99.90;;;;;;5050423;28;20395;-85
2022/01/19 11:02:03;;;;;;;23.95;4.00;;;0.50;99.90;;;;;;5050375;28;20391;-85
2022/01/19 11:04:40;;;;;;;44.42;5.20;;;0.50;99.90;;;;;;5050552;28;20419;-86
2022/01/19 11:07:11;;;;;;;46.10;5.40;;;0.60;99.90;;;;;;5051480;28;20396;-83
2022/01/19 11:09:45;;;;;;;16.17;3.97;;;0.50;99.90;;;;;;5033627;28;20486;-86
2022/01/19 11:12:18;;;;;;;49.10;5.50;;;0.50;99.90;;;;;;5049867;28;20477;-83
2022/01/19 11:14:46;;;;;;;30.80;4.90;;;0.50;99.90;;;;;;5051185;28;20387;-84
2022/01/19 11:17:34;;;;;;;19.52;4.22;;;0.50;99.90;;;;;;5036184;28;20398;-85
2022/01/19 11:20:08;;;;;;;23.60;4.55;;;0.50;99.90;;;;;;5032630;28;20807;-84
2022/01/19 11:23:02;;;;;;;40.78;5.75;;;0.50;99.90;;;;;;5048574;28;20454;-85
2022/01/19 11:25:57;;;;;;;28.63;5.53;;;0.50;99.90;;;;;;5035993;28;20403;-85
2022/01/19 11:28:36;;;;;;;23.48;5.25;;;0.50;99.90;;;;;;5046235;28;20417;-85
2022/01/19 11:31:10;;;;;;;15.30;5.03;;;0.50;99.90;;;;;;5041165;28;20491;-86
2022/01/19 11:33:53;;;;;;;15.75;5.30;;;0.60;99.90;;;;;;5033713;28;20867;-85
2022/01/19 11:36:24;;;;;;;23.85;5.90;;;0.50;99.90;;;;;;5052603;28;20854;-85
2022/01/19 11:39:03;;;;;;;13.57;5.63;;;0.60;99.90;;;;;;5053598;28;20392;-85
2022/01/19 11:41:45;;;;;;;14.57;5.63;;;0.60;99.90;;;;;;5053399;28;20383;-86
2022/01/19 11:44:17;;;;;;;27.13;6.63;;;0.60;99.90;;;;;;5053313;28;20396;-86
2022/01/19 11:46:53;;;;;;;20.55;7.65;;;0.60;99.90;;;;;;5053353;28;20388;-83
2022/01/19 11:50:00;;;;;;;17.55;6.70;;;0.60;99.90;;;;;;5066350;28;20811;-84
2022/01/19 11:52:51;;;;;;;16.60;6.57;;;0.60;99.90;;;;;;4976405;28;20874;-86
2022/01/19 11:55:26;;;;;;;18.10;7.65;;;0.60;99.90;;;;;;5056329;28;20398;-84
2022/01/19 11:58:24;;;;;;;31.45;9.02;;;0.60;99.90;;;;;;5056509;28;20880;-85
2022/01/19 12:00:55;;;;;;;20.38;8.40;;;0.60;99.90;;;;;;5056622;28;20384;-83
2022/01/19 12:03:24;;;;;;;17.08;8.52;;;0.60;99.90;;;;;;5056475;28;20860;-86
2022/01/19 12:06:30;;;;;;;20.08;8.73;;;0.60;99.90;;;;;;5059668;28;20394;-86
2022/01/19 12:09:00;;;;;;;16.85;8.27;;;0.60;99.90;;;;;;5056675;28;20385;-84
2022/01/19 12:11:29;;;;;;;21.30;8.63;;;0.60;99.90;;;;;;5056219;28;20961;-86
2022/01/19 12:14:33;;;;;;;21.95;10.00;;;0.60;99.90;;;;;;5054701;28;20429;-84
2022/01/19 12:17:08;;;;;;;20.40;8.88;;;0.60;99.90;;;;;;5053017;28;20384;-85
2022/01/19 12:19:40;;;;;;;18.93;9.23;;;0.60;99.90;;;;;;5020195;28;20825;-87
2022/01/19 12:22:26;;;;;;;19.80;8.85;;;0.60;99.90;;;;;;5036490;28;20394;-86
2022/01/19 12:25:11;;;;;;;19.23;9.57;;;0.60;99.90;;;;;;5036210;28;20470;-84
2022/01/19 12:27:46;;;;;;;17.95;9.15;;;0.70;99.90;;;;;;5042959;28;20905;-85
2022/01/19 12:30:18;;;;;;;24.08;10.27;;;0.60;99.90;;;;;;5063246;28;20900;-86
2022/01/19 12:32:47;;;;;;;22.03;10.13;;;0.60;99.90;;;;;;5061135;28;20439;-84
2022/01/19 12:35:33;;;;;;;22.02;9.75;;;0.70;99.90;;;;;;5059561;28;20462;-85
2022/01/19 12:38:04;;;;;;;21.83;9.90;;;0.70;99.90;;;;;;5051790;28;20392;-85
2022/01/19 12:40:42;;;;;;;22.47;10.57;;;0.60;99.90;;;;;;5031359;28;20423;-85
2022/01/19 12:43:13;;;;;;;22.23;10.15;;;0.70;99.90;;;;;;5018780;28;20426;-85
2022/01/19 12:45:48;;;;;;;25.95;10.52;;;0.70;99.90;;;;;;5049320;28;20402;-85
2022/01/19 12:48:34;;;;;;;27.05;10.70;;;0.70;99.90;;;;;;5054038;28;20448;-85
2022/01/19 12:51:02;;;;;;;22.98;10.20;;;0.70;99.90;;;;;;5073049;28;20456;-85
2022/01/19 12:53:29;;;;;;;24.20;11.00;;;0.70;99.90;;;;;;5055015;28;20888;-84
2022/01/19 12:56:01;;;;;;;22.08;9.70;;;0.70;99.90;;;;;;5055258;28;20441;-83
2022/01/19 12:58:39;;;;;;;22.52;11.27;;;0.70;99.90;;;;;;5035156;28;20454;-85
2022/01/19 13:01:10;;;;;;;25.57;11.00;;;0.70;99.90;;;;;;5051884;28;20384;-84
2022/01/19 13:03:40;;;;;;;24.38;10.95;;;0.70;99.90;;;;;;5054907;28;20398;-85
2022/01/19 13:06:17;;;;;;;23.42;10.60;;;0.70;99.90;;;;;;5055609;28;20447;-84
2022/01/19 13:09:05;;;;;;;23.73;10.52;;;0.70;99.90;;;;;;5055124;28;20410;-85
2022/01/19 13:11:50;;;;;;;28.40;12.23;;;0.70;99.90;;;;;;5054347;28;20382;-84
2022/01/19 13:14:18;;;;;;;22.73;10.57;;;0.70;99.90;;;;;;5052742;28;20411;-85
2022/01/19 13:16:47;;;;;;;24.67;11.02;;;0.70;99.90;;;;;;5018487;28;20391;-84
2022/01/19 13:19:16;;;;;;;25.00;10.27;;;0.70;99.90;;;;;;5035271;28;20395;-84
2022/01/19 13:21:47;;;;;;;22.58;10.60;;;0.70;99.90;;;;;;5051973;28;20394;-86
2022/01/19 13:24:25;;;;;;;25.67;10.48;;;0.80;99.90;;;;;;5055196;28;20468;-85
2022/01/19 13:26:59;;;;;;;27.00;11.10;;;0.80;99.90;;;;;;5054940;28;20463;-87
2022/01/19 13:29:36;;;;;;;25.53;11.03;;;0.80;99.90;;;;;;5037459;28;20398;-86
2022/01/19 13:35:57;;;;;;;25.33;10.55;;;0.80;99.90;;;;;;5034639;28;20402;-86
2022/01/19 13:38:26;;;;;;;23.55;9.93;;;0.80;99.90;;;;;;5034871;28;20388;-85
2022/01/19 13:41:08;;;;;;;23.58;9.70;;;0.80;99.90;;;;;;5035287;28;20455;-85
2022/01/19 13:43:39;;;;;;;23.63;10.45;;;0.80;99.90;;;;;;5052366;28;20423;-86
2022/01/19 13:46:13;;;;;;;22.75;9.88;;;0.80;99.90;;;;;;5018349;28;20384;-85
2022/01/19 13:48:47;;;;;;;24.70;9.75;;;0.80;99.90;;;;;;5034596;28;20446;-85
2022/01/19 13:51:17;;;;;;;24.13;10.97;;;0.80;99.90;;;;;;5034404;28;20416;-85
2022/01/19 13:53:53;;;;;;;26.67;10.43;;;0.80;99.90;;;;;;5017064;28;20845;-85
2022/01/19 13:56:26;;;;;;;27.80;11.48;;;0.80;99.90;;;;;;5071742;28;20392;-84
2022/01/19 13:59:05;;;;;;;25.48;10.65;;;0.90;99.90;;;;;;5053820;28;20390;-85
2022/01/19 14:01:33;;;;;;;25.48;10.40;;;0.90;99.90;;;;;;5053758;28;20467;-86
2022/01/19 14:04:06;;;;;;;24.23;10.17;;;0.90;99.90;;;;;;5053912;28;20901;-85
2022/01/19 14:06:39;;;;;;;21.95;10.40;;;0.90;99.90;;;;;;5071784;28;20386;-85
2022/01/19 14:09:15;;;;;;;26.30;10.23;;;0.90;99.90;;;;;;5053965;28;20497;-86
2022/01/19 14:12:16;;;;;;;23.03;10.90;;;0.90;99.90;;;;;;5053591;28;20474;-86
2022/01/19 14:14:58;;;;;;;22.88;10.38;;;0.90;99.90;;;;;;5033770;28;20641;-85
2022/01/19 14:17:34;;;;;;;23.70;10.85;;;0.80;99.90;;;;;;5051944;28;20384;-86
2022/01/19 14:20:03;;;;;;;22.90;10.05;;;0.90;99.90;;;;;;5033836;28;20400;-86
2022/01/19 14:22:34;;;;;;;22.10;9.87;;;0.80;99.90;;;;;;5017330;28;20388;-86
2022/01/19 14:25:12;;;;;;;26.37;9.77;;;0.80;99.90;;;;;;5035118;28;20854;-86
2022/01/19 14:27:55;;;;;;;21.45;8.75;;;0.90;99.90;;;;;;5018791;28;20927;-86
2022/01/19 14:30:32;;;;;;;22.10;9.98;;;0.90;99.90;;;;;;5033927;28;20403;-86
2022/01/19 14:33:14;;;;;;;23.42;10.30;;;0.90;99.90;;;;;;5037533;28;20442;-86
2022/01/19 14:35:42;;;;;;;22.08;9.25;;;0.90;99.90;;;;;;5033279;28;20436;-86
2022/01/19 14:38:28;;;;;;;24.98;10.20;;;0.90;99.90;;;;;;5033608;28;20404;-85
2022/01/19 14:41:07;;;;;;;23.10;9.48;;;0.90;99.90;;;;;;5050362;28;20433;-86
2022/01/19 14:43:45;;;;;;;23.83;9.70;;;0.90;99.90;;;;;;5050032;28;20423;-85
2022/01/19 14:47:13;;;;;;;22.40;9.00;;;0.90;99.90;;;;;;5038578;28;20428;-85
2022/01/19 14:49:40;;;;;;;23.30;10.27;;;0.90;99.90;;;;;;5027883;28;20473;-86
2022/01/19 14:52:11;;;;;;;25.17;9.50;;;1.00;99.90;;;;;;5045694;28;20416;-85